Time;durP1;ratioP1;P1;durP2;ratioP2;P2;SDS_P1;SDS_P2;PMS_P1;PMS_P2;Temp;Humidity;BMP_temperature;BMP_pressure;BME280_temperature;BME280_humidity;BME280_pressure;Samples;Min_cycle;Max_cycle;Signal;HPM_P1;HPM_P2
2021/07/27 00:01:46;;;;;;;0.30;0.30;;;;;;;;;;5059973;28;20427;-62
2021/07/27 00:04:12;;;;;;;0.30;0.30;;;;;;;;;;5071377;28;20467;-63
2021/07/27 00:06:38;;;;;;;0.30;0.20;;;;;;;;;;5055734;28;20449;-63
2021/07/27 00:09:04;;;;;;;0.30;0.30;;;;;;;;;;5051083;28;20406;-63
2021/07/27 00:11:30;;;;;;;0.30;0.30;;;;;;;;;;5061059;28;20804;-64
2021/07/27 00:13:56;;;;;;;0.30;0.30;;;;;;;;;;5067549;28;20417;-64
2021/07/27 00:16:22;;;;;;;0.30;0.30;;;;;;;;;;5058829;28;20441;-64
2021/07/27 00:18:48;;;;;;;0.30;0.30;;;;;;;;;;5051038;28;20413;-65
2021/07/27 00:21:14;;;;;;;0.30;0.30;;;;;;;;;;5061000;28;20499;-65
2021/07/27 00:23:40;;;;;;;0.30;0.20;;;;;;;;;;5062141;28;20404;-64
2021/07/27 00:26:15;;;;;;;0.30;0.30;;;;;;;;;;5051366;28;20397;-66
2021/07/27 00:28:42;;;;;;;0.30;0.30;;;;;;;;;;5063302;28;20969;-66
2021/07/27 00:31:15;;;;;;;0.30;0.30;;;;;;;;;;5071065;28;20894;-66
2021/07/27 00:33:41;;;;;;;0.30;0.30;;;;;;;;;;5071277;28;20409;-66
2021/07/27 00:36:08;;;;;;;0.30;0.30;;;;;;;;;;5070951;28;20774;-65
2021/07/27 00:38:34;;;;;;;0.30;0.30;;;;;;;;;;5070972;28;20593;-65
2021/07/27 00:41:00;;;;;;;0.30;0.20;;;;;;;;;;5070965;28;20412;-62
2021/07/27 00:43:26;;;;;;;0.30;0.20;;;;;;;;;;5071000;28;20402;-63
2021/07/27 00:45:53;;;;;;;0.30;0.20;;;;;;;;;;5070983;28;20920;-65
2021/07/27 00:48:19;;;;;;;0.30;0.20;;;;;;;;;;5070805;28;20405;-60
2021/07/27 00:50:45;;;;;;;0.30;0.20;;;;;;;;;;5070968;28;20383;-64
2021/07/27 00:53:11;;;;;;;0.30;0.30;;;;;;;;;;5070986;28;20417;-64
2021/07/27 00:55:38;;;;;;;0.30;0.20;;;;;;;;;;5070851;28;20405;-65
2021/07/27 00:58:04;;;;;;;0.30;0.20;;;;;;;;;;5070793;28;20859;-65
2021/07/27 01:00:30;;;;;;;10.80;0.60;;;;;;;;;;5070691;28;20413;-65
2021/07/27 01:02:56;;;;;;;0.30;0.23;;;;;;;;;;5070870;28;20826;-64
2021/07/27 01:05:24;;;;;;;0.30;0.30;;;;;;;;;;5070871;28;20736;-65
2021/07/27 01:07:50;;;;;;;10.70;2.10;;;;;;;;;;5070744;28;20396;-65
2021/07/27 01:10:17;;;;;;;0.30;0.20;;;;;;;;;;5073710;28;20411;-64
2021/07/27 01:13:03;;;;;;;0.30;0.20;;;;;;;;;;5074311;28;20380;-64
2021/07/27 01:15:29;;;;;;;0.30;0.30;;;;;;;;;;5074431;28;20638;-64
2021/07/27 01:18:02;;;;;;;0.30;0.20;;;;;;;;;;5074345;28;20457;-65
2021/07/27 01:20:56;;;;;;;0.30;0.20;;;;;;;;;;5074201;28;20809;-64
2021/07/27 01:39:50;;;;;;;0.30;0.30;;;;;;;;;;5073675;28;20417;-66
2021/07/27 01:42:18;;;;;;;0.30;0.20;;;;;;;;;;5073628;28;20890;-63
2021/07/27 01:44:45;;;;;;;0.30;0.30;;;;;;;;;;5073815;28;20777;-64
2021/07/27 01:47:12;;;;;;;0.30;0.20;;;;;;;;;;5073855;28;20432;-64
2021/07/27 01:49:38;;;;;;;0.30;0.20;;;;;;;;;;5073480;28;20402;-64
2021/07/27 01:52:09;;;;;;;0.30;0.30;;;;;;;;;;5073638;28;20383;-66
2021/07/27 01:54:41;;;;;;;0.30;0.20;;;;;;;;;;5073651;28;20384;-65
2021/07/27 01:57:16;;;;;;;0.30;0.20;;;;;;;;;;5073356;28;20443;-65
2021/07/27 01:59:42;;;;;;;0.30;0.20;;;;;;;;;;5055272;28;20881;-65
2021/07/27 02:02:09;;;;;;;0.30;0.20;;;;;;;;;;5073272;28;20502;-66
2021/07/27 02:04:35;;;;;;;0.30;0.20;;;;;;;;;;5073341;28;20748;-64
2021/07/27 02:07:01;;;;;;;0.30;0.30;;;;;;;;;;5073198;28;20429;-64
2021/07/27 02:09:32;;;;;;;0.30;0.30;;;;;;;;;;5072959;28;20388;-64
2021/07/27 02:12:01;;;;;;;0.30;0.20;;;;;;;;;;5073123;28;20489;-63
2021/07/27 02:17:25;;;;;;;0.30;0.20;;;;;;;;;;5028206;28;20416;-65
2021/07/27 02:19:51;;;;;;;0.30;0.20;;;;;;;;;;5072151;28;20384;-65
2021/07/27 02:22:18;;;;;;;0.30;0.20;;;;;;;;;;5072591;28;20492;-64
2021/07/27 02:24:46;;;;;;;0.30;0.30;;;;;;;;;;5072970;28;20816;-65
2021/07/27 02:27:13;;;;;;;0.30;0.30;;;;;;;;;;5072809;28;20434;-64
2021/07/27 02:29:39;;;;;;;0.30;0.20;;;;;;;;;;5072637;28;20376;-64
2021/07/27 02:32:05;;;;;;;0.30;0.20;;;;;;;;;;5072860;28;20438;-61
2021/07/27 02:34:32;;;;;;;0.30;0.20;;;;;;;;;;5073212;28;20460;-63
2021/07/27 02:36:58;;;;;;;0.30;0.30;;;;;;;;;;5072654;28;20491;-64
2021/07/27 02:39:24;;;;;;;0.30;0.30;;;;;;;;;;5072430;28;20413;-64
2021/07/27 02:41:50;;;;;;;0.30;0.30;;;;;;;;;;5072596;28;20463;-64
2021/07/27 02:44:16;;;;;;;0.30;0.30;;;;;;;;;;5072578;28;20385;-64
2021/07/27 02:46:42;;;;;;;0.30;0.30;;;;;;;;;;5072479;28;20461;-64
2021/07/27 02:49:08;;;;;;;0.30;0.20;;;;;;;;;;5072201;28;20399;-66
2021/07/27 02:51:34;;;;;;;0.30;0.20;;;;;;;;;;5072526;28;20406;-64
2021/07/27 02:54:00;;;;;;;0.30;0.30;;;;;;;;;;5072453;28;20506;-64
2021/07/27 02:56:26;;;;;;;0.30;0.20;;;;;;;;;;5072312;28;20520;-66
2021/07/27 02:58:52;;;;;;;0.30;0.20;;;;;;;;;;5072048;28;20448;-64
2021/07/27 03:01:18;;;;;;;0.30;0.20;;;;;;;;;;5072417;28;20431;-64
2021/07/27 03:03:47;;;;;;;0.30;0.20;;;;;;;;;;5072417;28;20413;-62
2021/07/27 03:06:14;;;;;;;0.30;0.30;;;;;;;;;;5072162;28;20457;-65
2021/07/27 03:11:21;;;;;;;0.30;0.30;;;;;;;;;;5072865;28;20413;-65
2021/07/27 03:13:47;;;;;;;0.30;0.30;;;;;;;;;;5072170;28;20409;-65
2021/07/27 03:16:14;;;;;;;0.30;0.20;;;;;;;;;;5072083;28;20404;-64
2021/07/27 03:18:40;;;;;;;0.30;0.30;;;;;;;;;;5072874;28;20413;-65
2021/07/27 03:21:06;;;;;;;0.30;0.30;;;;;;;;;;5082483;28;20387;-66
2021/07/27 03:23:32;;;;;;;0.30;0.20;;;;;;;;;;5081348;28;20406;-66
2021/07/27 03:25:58;;;;;;;0.30;0.20;;;;;;;;;;5081844;28;20845;-62
2021/07/27 03:28:24;;;;;;;0.30;0.30;;;;;;;;;;5071922;28;20372;-63
2021/07/27 03:30:51;;;;;;;0.30;0.30;;;;;;;;;;5071781;28;20474;-63
2021/07/27 03:33:17;;;;;;;0.30;0.20;;;;;;;;;;5071619;28;20402;-64
2021/07/27 03:35:43;;;;;;;0.30;0.30;;;;;;;;;;5071518;28;20412;-64
2021/07/27 03:38:09;;;;;;;0.30;0.30;;;;;;;;;;5079047;22;20514;-62
2021/07/27 03:40:35;;;;;;;0.30;0.20;;;;;;;;;;5050812;28;20963;-62
2021/07/27 03:43:01;;;;;;;0.30;0.20;;;;;;;;;;5051500;28;20493;-62
2021/07/27 03:45:27;;;;;;;0.30;0.20;;;;;;;;;;5051829;28;20922;-62
2021/07/27 03:47:53;;;;;;;0.30;0.20;;;;;;;;;;5051478;28;20833;-62
2021/07/27 03:50:19;;;;;;;0.30;0.20;;;;;;;;;;5051324;28;20810;-62
2021/07/27 03:52:45;;;;;;;0.30;0.20;;;;;;;;;;5051558;28;20404;-62
2021/07/27 03:55:12;;;;;;;0.30;0.20;;;;;;;;;;5051463;28;20934;-62
2021/07/27 03:57:38;;;;;;;0.30;0.20;;;;;;;;;;5051193;28;20524;-62
2021/07/27 04:00:05;;;;;;;0.30;0.20;;;;;;;;;;5051212;28;20849;-62
2021/07/27 04:02:31;;;;;;;0.30;0.30;;;;;;;;;;5051460;28;20465;-62
2021/07/27 04:04:57;;;;;;;0.30;0.20;;;;;;;;;;5051423;28;20753;-62
2021/07/27 04:07:23;;;;;;;0.30;0.30;;;;;;;;;;5051699;28;20404;-62
2021/07/27 04:09:49;;;;;;;0.30;0.30;;;;;;;;;;5050795;28;20483;-61
2021/07/27 04:12:15;;;;;;;0.30;0.20;;;;;;;;;;5049276;28;20946;-61
2021/07/27 04:14:41;;;;;;;0.30;0.30;;;;;;;;;;5051024;28;20422;-61
2021/07/27 04:17:07;;;;;;;0.30;0.30;;;;;;;;;;5033429;28;20457;-61
2021/07/27 04:19:33;;;;;;;0.30;0.30;;;;;;;;;;5051165;28;20385;-62
2021/07/27 04:21:59;;;;;;;0.30;0.30;;;;;;;;;;5050919;28;20457;-61
2021/07/27 04:24:27;;;;;;;0.30;0.30;;;;;;;;;;5051358;28;20407;-62
2021/07/27 04:26:54;;;;;;;0.30;0.20;;;;;;;;;;5050750;28;20542;-62
2021/07/27 04:29:20;;;;;;;0.30;0.30;;;;;;;;;;5050487;28;20506;-62
2021/07/27 04:31:50;;;;;;;0.30;0.30;;;;;;;;;;5050852;28;20476;-61
2021/07/27 04:34:16;;;;;;;0.30;0.30;;;;;;;;;;5051284;28;20414;-61
2021/07/27 04:36:42;;;;;;;0.30;0.20;;;;;;;;;;5045635;28;20875;-62
2021/07/27 04:39:08;;;;;;;0.30;0.20;;;;;;;;;;5030982;28;20421;-61
2021/07/27 04:41:34;;;;;;;0.30;0.20;;;;;;;;;;5031069;28;20548;-61
2021/07/27 04:44:00;;;;;;;0.30;0.20;;;;;;;;;;5051018;28;20833;-61
2021/07/27 04:46:26;;;;;;;0.30;0.30;;;;;;;;;;5047827;28;20398;-62
2021/07/27 04:48:53;;;;;;;0.30;0.20;;;;;;;;;;5034814;28;20930;-61
2021/07/27 04:51:19;;;;;;;0.30;0.30;;;;;;;;;;5034692;28;20468;-62
2021/07/27 04:53:47;;;;;;;0.30;0.20;;;;;;;;;;5034766;28;20485;-61
2021/07/27 04:56:13;;;;;;;0.30;0.30;;;;;;;;;;5034320;28;20437;-61
2021/07/27 04:58:39;;;;;;;0.30;0.30;;;;;;;;;;5034256;28;20424;-62
2021/07/27 05:01:05;;;;;;;0.30;0.20;;;;;;;;;;5034712;28;20408;-62
2021/07/27 05:03:31;;;;;;;0.30;0.30;;;;;;;;;;5034359;28;20382;-61
2021/07/27 05:05:57;;;;;;;0.30;0.30;;;;;;;;;;5034140;28;20390;-62
2021/07/27 05:08:24;;;;;;;0.30;0.20;;;;;;;;;;5033619;28;20435;-62
2021/07/27 05:10:50;;;;;;;0.30;0.30;;;;;;;;;;5034324;28;20382;-62
2021/07/27 05:13:16;;;;;;;0.30;0.30;;;;;;;;;;5034180;28;20412;-62
2021/07/27 05:15:42;;;;;;;0.30;0.30;;;;;;;;;;5034228;28;20382;-61
2021/07/27 05:18:08;;;;;;;0.30;0.20;;;;;;;;;;5033955;28;20431;-62
2021/07/27 05:20:34;;;;;;;0.30;0.30;;;;;;;;;;5033654;28;20967;-62
2021/07/27 05:23:00;;;;;;;0.30;0.20;;;;;;;;;;5033917;28;20466;-61
2021/07/27 05:25:25;;;;;;;0.30;0.20;;;;;;;;;;5033869;28;20465;-61
2021/07/27 05:27:51;;;;;;;0.30;0.30;;;;;;;;;;5033713;28;20426;-61
2021/07/27 05:30:17;;;;;;;0.30;0.30;;;;;;;;;;5033415;28;20903;-61
2021/07/27 05:32:44;;;;;;;0.30;0.30;;;;;;;;;;5033320;28;20386;-61
2021/07/27 05:35:11;;;;;;;0.30;0.30;;;;;;;;;;5040510;28;20408;-62
2021/07/27 05:37:37;;;;;;;0.30;0.30;;;;;;;;;;5053051;28;20480;-61
2021/07/27 05:40:03;;;;;;;0.30;0.30;;;;;;;;;;5052703;28;20437;-61
2021/07/27 05:42:29;;;;;;;0.30;0.20;;;;;;;;;;5018386;28;20428;-61
2021/07/27 05:44:55;;;;;;;0.30;0.30;;;;;;;;;;5033612;28;20458;-61
2021/07/27 05:47:21;;;;;;;0.30;0.20;;;;;;;;;;5033395;28;20431;-61
2021/07/27 05:49:47;;;;;;;0.30;0.20;;;;;;;;;;5033185;28;20491;-61
2021/07/27 05:52:13;;;;;;;0.30;0.30;;;;;;;;;;5033357;28;20403;-61
2021/07/27 05:54:40;;;;;;;0.30;0.30;;;;;;;;;;5035455;28;20499;-61
2021/07/27 05:57:10;;;;;;;0.30;0.30;;;;;;;;;;5050735;28;20449;-61
2021/07/27 05:59:36;;;;;;;0.30;0.30;;;;;;;;;;5052423;28;20901;-61
2021/07/27 06:02:02;;;;;;;0.30;0.27;;;;;;;;;;5052976;28;20540;-61
2021/07/27 06:04:28;;;;;;;0.30;0.30;;;;;;;;;;5052072;28;20470;-61
2021/07/27 06:06:54;;;;;;;0.30;0.30;;;;;;;;;;5051448;28;20924;-61
2021/07/27 06:09:20;;;;;;;0.30;0.20;;;;;;;;;;5052481;28;20419;-61
2021/07/27 06:11:46;;;;;;;0.30;0.30;;;;;;;;;;5034245;28;20438;-61
2021/07/27 06:14:12;;;;;;;0.30;0.20;;;;;;;;;;5045474;28;20453;-61
2021/07/27 06:16:39;;;;;;;0.30;0.27;;;;;;;;;;5047858;28;20454;-61
2021/07/27 06:19:05;;;;;;;0.30;0.30;;;;;;;;;;5031280;28;20474;-61
2021/07/27 06:21:31;;;;;;;0.30;0.30;;;;;;;;;;5034091;28;20465;-61
2021/07/27 06:23:57;;;;;;;0.30;0.30;;;;;;;;;;5052327;28;20491;-61
2021/07/27 06:26:23;;;;;;;0.30;0.20;;;;;;;;;;5052551;28;20402;-61
2021/07/27 06:28:49;;;;;;;0.30;0.30;;;;;;;;;;5051830;28;20403;-61
2021/07/27 06:31:15;;;;;;;0.30;0.30;;;;;;;;;;5052133;28;20399;-61
2021/07/27 06:33:42;;;;;;;0.30;0.20;;;;;;;;;;5052813;28;20398;-61
2021/07/27 06:36:09;;;;;;;0.30;0.23;;;;;;;;;;5052428;28;20402;-61
2021/07/27 06:38:35;;;;;;;0.30;0.20;;;;;;;;;;5052235;28;20406;-61
2021/07/27 06:41:01;;;;;;;0.30;0.30;;;;;;;;;;5051561;28;20413;-61
2021/07/27 06:43:27;;;;;;;0.30;0.20;;;;;;;;;;5052105;28;20454;-61
2021/07/27 06:45:54;;;;;;;0.30;0.20;;;;;;;;;;5052391;28;20419;-61
2021/07/27 06:48:20;;;;;;;0.30;0.20;;;;;;;;;;5052259;28;20470;-61
2021/07/27 06:50:46;;;;;;;0.30;0.20;;;;;;;;;;5052124;28;20830;-61
2021/07/27 06:53:12;;;;;;;0.30;0.20;;;;;;;;;;5051604;28;20904;-61
2021/07/27 06:55:38;;;;;;;0.30;0.30;;;;;;;;;;5051976;28;20421;-61
2021/07/27 06:58:04;;;;;;;0.30;0.20;;;;;;;;;;5051849;28;20404;-61
2021/07/27 07:00:30;;;;;;;0.30;0.20;;;;;;;;;;5051933;28;20751;-61
2021/07/27 07:02:56;;;;;;;0.30;0.30;;;;;;;;;;5051442;28;20974;-61
2021/07/27 07:05:22;;;;;;;0.30;0.30;;;;;;;;;;5051837;28;20493;-61
2021/07/27 07:07:48;;;;;;;0.30;0.30;;;;;;;;;;5051292;28;20502;-61
2021/07/27 07:10:15;;;;;;;0.30;0.20;;;;;;;;;;5051795;28;20381;-61
2021/07/27 07:12:41;;;;;;;0.30;0.20;;;;;;;;;;5052086;28;20420;-62
2021/07/27 07:15:07;;;;;;;0.30;0.20;;;;;;;;;;5051573;28;20556;-62
2021/07/27 07:17:33;;;;;;;0.30;0.20;;;;;;;;;;5050709;28;20978;-62
2021/07/27 07:19:59;;;;;;;0.30;0.20;;;;;;;;;;5051486;28;20407;-62
2021/07/27 07:22:25;;;;;;;0.30;0.20;;;;;;;;;;5051431;28;20440;-62
2021/07/27 07:24:52;;;;;;;0.30;0.20;;;;;;;;;;5051326;28;20776;-62
2021/07/27 07:27:18;;;;;;;0.30;0.20;;;;;;;;;;5051029;28;20445;-62
2021/07/27 07:29:44;;;;;;;0.30;0.20;;;;;;;;;;5051166;28;20446;-62
2021/07/27 07:32:10;;;;;;;0.30;0.20;;;;;;;;;;5051291;28;20406;-62
2021/07/27 07:34:36;;;;;;;0.30;0.20;;;;;;;;;;5051338;28;21021;-62
2021/07/27 07:37:03;;;;;;;0.30;0.20;;;;;;;;;;5050615;28;20949;-63
2021/07/27 07:39:31;;;;;;;0.20;0.20;;;;;;;;;;5051031;28;20494;-62
2021/07/27 07:41:58;;;;;;;0.20;0.20;;;;;;;;;;5051103;28;20453;-62
2021/07/27 07:44:24;;;;;;;0.20;0.20;;;;;;;;;;5051208;28;20431;-62
2021/07/27 07:46:50;;;;;;;0.20;0.20;;;;;;;;;;5050842;28;20465;-62
2021/07/27 07:49:16;;;;;;;0.20;0.20;;;;;;;;;;5032788;28;20438;-62
2021/07/27 07:51:47;;;;;;;0.20;0.20;;;;;;;;;;5051088;28;20898;-62
2021/07/27 07:54:13;;;;;;;0.20;0.20;;;;;;;;;;5050943;28;20464;-62
2021/07/27 07:56:43;;;;;;;0.20;0.20;;;;;;;;;;5050799;28;20459;-62
2021/07/27 07:59:09;;;;;;;0.20;0.20;;;;;;;;;;5050321;28;20402;-62
2021/07/27 08:01:35;;;;;;;0.20;0.20;;;;;;;;;;5051130;28;20504;-62
2021/07/27 08:04:01;;;;;;;0.20;0.20;;;;;;;;;;5051131;28;20402;-62
2021/07/27 08:06:29;;;;;;;0.20;0.20;;;;;;;;;;5050693;28;20397;-63
2021/07/27 08:08:55;;;;;;;0.20;0.20;;;;;;;;;;5050591;28;20417;-62
2021/07/27 08:11:21;;;;;;;0.20;0.20;;;;;;;;;;5050624;28;20450;-62
2021/07/27 08:13:47;;;;;;;0.20;0.20;;;;;;;;;;5051043;28;20442;-62
2021/07/27 08:16:13;;;;;;;0.20;0.20;;;;;;;;;;5050614;28;20388;-62
2021/07/27 08:18:39;;;;;;;0.20;0.20;;;;;;;;;;5050557;28;20385;-62
2021/07/27 08:21:05;;;;;;;0.20;0.20;;;;;;;;;;5054369;28;20778;-62
2021/07/27 08:23:32;;;;;;;0.20;0.20;;;;;;;;;;5054874;28;20430;-63
2021/07/27 08:25:59;;;;;;;0.20;0.20;;;;;;;;;;5055192;28;20931;-63
2021/07/27 08:28:26;;;;;;;0.20;0.20;;;;;;;;;;5054570;28;20405;-62
2021/07/27 08:30:52;;;;;;;0.20;0.20;;;;;;;;;;5054511;28;20410;-62
2021/07/27 08:33:22;;;;;;;0.20;0.20;;;;;;;;;;5054208;28;20896;-62
2021/07/27 08:35:48;;;;;;;0.20;0.20;;;;;;;;;;5054609;28;20377;-62
2021/07/27 08:38:13;;;;;;;0.20;0.20;;;;;;;;;;5053441;28;20519;-62
2021/07/27 08:40:40;;;;;;;0.20;0.20;;;;;;;;;;5054407;28;20392;-62
2021/07/27 08:43:08;;;;;;;0.20;0.20;;;;;;;;;;5053952;28;20467;-62
2021/07/27 08:45:34;;;;;;;0.20;0.20;;;;;;;;;;5054463;28;20408;-62
2021/07/27 08:48:01;;;;;;;0.20;0.20;;;;;;;;;;5054325;28;20410;-63
2021/07/27 08:50:27;;;;;;;0.20;0.20;;;;;;;;;;5054025;28;20410;-62
2021/07/27 08:52:53;;;;;;;0.20;0.20;;;;;;;;;;5054267;28;20444;-62
2021/07/27 08:55:19;;;;;;;0.20;0.20;;;;;;;;;;5053335;28;20516;-63
2021/07/27 08:57:47;;;;;;;0.20;0.20;;;;;;;;;;5054360;28;20465;-63
2021/07/27 09:00:14;;;;;;;0.20;0.20;;;;;;;;;;5054125;28;20498;-63
2021/07/27 09:02:40;;;;;;;0.20;0.20;;;;;;;;;;5054181;28;20497;-61
2021/07/27 09:05:09;;;;;;;0.20;0.20;;;;;;;;;;5053866;28;20899;-61
2021/07/27 09:07:35;;;;;;;0.20;0.20;;;;;;;;;;5053536;28;20426;-61
2021/07/27 09:10:11;;;;;;;0.20;0.20;;;;;;;;;;5053867;28;20463;-62
2021/07/27 09:12:37;;;;;;;0.20;0.20;;;;;;;;;;5054080;28;20452;-61
2021/07/27 09:15:06;;;;;;;0.20;0.20;;;;;;;;;;5054050;28;20506;-61
2021/07/27 09:17:32;;;;;;;0.20;0.20;;;;;;;;;;5053309;28;20472;-61
2021/07/27 09:19:59;;;;;;;0.20;0.20;;;;;;;;;;5053348;28;20410;-62
2021/07/27 09:22:25;;;;;;;0.20;0.20;;;;;;;;;;5053953;28;20475;-62
2021/07/27 09:24:51;;;;;;;0.20;0.20;;;;;;;;;;5053850;28;20409;-63
2021/07/27 09:27:27;;;;;;;0.20;0.20;;;;;;;;;;5053447;28;20467;-63
2021/07/27 09:29:53;;;;;;;0.20;0.20;;;;;;;;;;5052991;28;20414;-63
2021/07/27 09:32:20;;;;;;;0.20;0.20;;;;;;;;;;5053326;28;20415;-63
2021/07/27 09:34:46;;;;;;;0.20;0.20;;;;;;;;;;5053627;28;20418;-62
2021/07/27 09:37:12;;;;;;;0.20;0.20;;;;;;;;;;5064621;22;20512;-63
2021/07/27 09:39:38;;;;;;;0.20;0.20;;;;;;;;;;5030833;28;20416;-63
2021/07/27 09:42:05;;;;;;;0.20;0.20;;;;;;;;;;5033403;28;20502;-63
2021/07/27 09:44:31;;;;;;;0.20;0.20;;;;;;;;;;5033186;28;20491;-63
2021/07/27 09:46:58;;;;;;;0.20;0.20;;;;;;;;;;5036982;28;20868;-63
2021/07/27 09:49:25;;;;;;;0.20;0.20;;;;;;;;;;5052898;28;20406;-63
2021/07/27 09:51:51;;;;;;;0.20;0.20;;;;;;;;;;5052935;28;20443;-63
2021/07/27 09:54:18;;;;;;;0.20;0.20;;;;;;;;;;5053233;28;20476;-64
2021/07/27 09:56:45;;;;;;;0.20;0.20;;;;;;;;;;5052773;28;21083;-64
2021/07/27 09:59:11;;;;;;;0.20;0.20;;;;;;;;;;5052952;28;20924;-63
2021/07/27 10:01:38;;;;;;;0.20;0.20;;;;;;;;;;5052449;28;20510;-64
2021/07/27 10:04:04;;;;;;;0.20;0.20;;;;;;;;;;5053318;28;20419;-64
2021/07/27 10:06:47;;;;;;;0.20;0.20;;;;;;;;;;5053029;28;20450;-64
2021/07/27 10:09:22;;;;;;;0.20;0.20;;;;;;;;;;5051707;28;20398;-64
2021/07/27 10:11:48;;;;;;;0.20;0.20;;;;;;;;;;5052607;28;20896;-64
2021/07/27 10:14:15;;;;;;;0.20;0.20;;;;;;;;;;5052468;28;20494;-64
2021/07/27 10:16:42;;;;;;;0.20;0.20;;;;;;;;;;5052657;28;20410;-64
2021/07/27 10:19:15;;;;;;;0.20;0.20;;;;;;;;;;5052510;28;20467;-64
2021/07/27 10:21:41;;;;;;;0.20;0.20;;;;;;;;;;5052632;28;20486;-63
2021/07/27 10:24:14;;;;;;;0.20;0.20;;;;;;;;;;5052290;28;20775;-63
2021/07/27 10:26:41;;;;;;;0.20;0.20;;;;;;;;;;5052473;28;20401;-63
2021/07/27 10:29:07;;;;;;;0.20;0.20;;;;;;;;;;5052455;28;20410;-63
2021/07/27 10:31:36;;;;;;;0.20;0.20;;;;;;;;;;5052603;28;20931;-63
2021/07/27 10:34:03;;;;;;;0.20;0.20;;;;;;;;;;5052236;28;20780;-63
2021/07/27 10:36:32;;;;;;;0.20;0.20;;;;;;;;;;5052122;28;20483;-64
2021/07/27 10:39:08;;;;;;;0.20;0.20;;;;;;;;;;5052046;28;20510;-63
2021/07/27 10:41:35;;;;;;;0.20;0.20;;;;;;;;;;5051489;28;20454;-63
2021/07/27 10:44:23;;;;;;;0.20;0.20;;;;;;;;;;5052306;28;20391;-63
2021/07/27 10:46:50;;;;;;;0.20;0.20;;;;;;;;;;5051599;28;20403;-64
2021/07/27 10:49:24;;;;;;;0.20;0.20;;;;;;;;;;5051864;28;20407;-64
2021/07/27 10:51:51;;;;;;;0.20;0.20;;;;;;;;;;5052449;28;20499;-65
2021/07/27 10:54:18;;;;;;;0.20;0.20;;;;;;;;;;5052381;28;20416;-63
2021/07/27 10:56:56;;;;;;;0.20;0.20;;;;;;;;;;5051775;28;20898;-62
2021/07/27 10:59:24;;;;;;;0.20;0.20;;;;;;;;;;5051494;28;20406;-63
2021/07/27 11:01:50;;;;;;;0.20;0.20;;;;;;;;;;5051968;28;20459;-63
2021/07/27 11:04:17;;;;;;;0.20;0.20;;;;;;;;;;5051694;28;20446;-63
2021/07/27 11:06:43;;;;;;;0.20;0.20;;;;;;;;;;5051953;28;20404;-63
2021/07/27 11:09:12;;;;;;;0.20;0.20;;;;;;;;;;5051208;28;20405;-63
2021/07/27 11:11:49;;;;;;;0.20;0.20;;;;;;;;;;5051605;28;20439;-63
2021/07/27 11:14:19;;;;;;;0.20;0.20;;;;;;;;;;5051870;28;20414;-63
2021/07/27 11:16:45;;;;;;;0.20;0.20;;;;;;;;;;5051619;28;20903;-63
2021/07/27 11:19:21;;;;;;;0.20;0.20;;;;;;;;;;5051103;28;20406;-63
2021/07/27 11:21:47;;;;;;;0.20;0.20;;;;;;;;;;5051237;28;20549;-63
2021/07/27 11:24:13;;;;;;;0.20;0.20;;;;;;;;;;5051786;28;20485;-63
2021/07/27 11:26:39;;;;;;;0.20;0.20;;;;;;;;;;5051462;28;20405;-63
2021/07/27 11:29:11;;;;;;;0.20;0.20;;;;;;;;;;5051296;28;20815;-63
2021/07/27 11:31:55;;;;;;;0.20;0.20;;;;;;;;;;5051054;28;20790;-63
2021/07/27 11:34:28;;;;;;;0.20;0.20;;;;;;;;;;5051150;28;20439;-63
2021/07/27 11:36:55;;;;;;;0.20;0.20;;;;;;;;;;5051168;28;20429;-62
2021/07/27 11:39:21;;;;;;;0.20;0.20;;;;;;;;;;5051076;28;20497;-62
2021/07/27 11:41:57;;;;;;;0.20;0.20;;;;;;;;;;5050523;28;20821;-62
2021/07/27 11:44:24;;;;;;;0.20;0.20;;;;;;;;;;5051190;28;20505;-65
2021/07/27 11:46:51;;;;;;;0.20;0.20;;;;;;;;;;5050737;28;20489;-65
2021/07/27 11:49:17;;;;;;;0.20;0.20;;;;;;;;;;5051071;28;20429;-63
2021/07/27 11:51:43;;;;;;;0.20;0.20;;;;;;;;;;5051227;28;20850;-64
2021/07/27 11:54:10;;;;;;;0.20;0.20;;;;;;;;;;5050572;28;20501;-64
2021/07/27 11:56:45;;;;;;;0.20;0.20;;;;;;;;;;5050796;28;20419;-63
2021/07/27 11:59:11;;;;;;;0.20;0.20;;;;;;;;;;5050682;28;20437;-63
2021/07/27 12:01:37;;;;;;;0.20;0.20;;;;;;;;;;5050486;28;20902;-63
2021/07/27 12:04:03;;;;;;;0.20;0.20;;;;;;;;;;5050723;28;20377;-64
2021/07/27 12:06:29;;;;;;;0.20;0.20;;;;;;;;;;5051055;28;20410;-63
2021/07/27 12:08:55;;;;;;;0.20;0.20;;;;;;;;;;5050655;28;20799;-63
2021/07/27 12:11:21;;;;;;;0.20;0.20;;;;;;;;;;5050689;28;20445;-63
2021/07/27 12:13:47;;;;;;;0.20;0.20;;;;;;;;;;5053282;28;20410;-63
2021/07/27 12:16:13;;;;;;;0.20;0.20;;;;;;;;;;5057487;28;20866;-63
2021/07/27 12:18:39;;;;;;;0.20;0.20;;;;;;;;;;5036747;28;20430;-64
2021/07/27 12:21:05;;;;;;;0.20;0.20;;;;;;;;;;5053163;28;20775;-63
2021/07/27 12:23:32;;;;;;;0.20;0.20;;;;;;;;;;5050682;28;20444;-63
2021/07/27 12:25:58;;;;;;;0.20;0.20;;;;;;;;;;5050858;28;20464;-63
2021/07/27 12:28:24;;;;;;;0.20;0.20;;;;;;;;;;5050524;28;20505;-63
2021/07/27 12:30:50;;;;;;;0.20;0.20;;;;;;;;;;5050755;28;20866;-63
2021/07/27 12:33:16;;;;;;;0.20;0.20;;;;;;;;;;5050812;28;20405;-63
2021/07/27 12:35:42;;;;;;;0.20;0.20;;;;;;;;;;5050554;28;20858;-63
2021/07/27 12:38:08;;;;;;;0.20;0.20;;;;;;;;;;5050031;28;20511;-63
2021/07/27 12:40:34;;;;;;;0.20;0.20;;;;;;;;;;5050513;28;20895;-63
2021/07/27 12:43:01;;;;;;;0.20;0.20;;;;;;;;;;5050844;28;20472;-63
2021/07/27 12:45:27;;;;;;;0.20;0.20;;;;;;;;;;5050608;28;20402;-63
2021/07/27 12:47:53;;;;;;;0.20;0.20;;;;;;;;;;5032378;28;20434;-63
2021/07/27 12:50:19;;;;;;;0.20;0.20;;;;;;;;;;5050089;28;20386;-64
2021/07/27 12:52:45;;;;;;;0.20;0.20;;;;;;;;;;5050477;28;20389;-63
2021/07/27 12:55:11;;;;;;;0.20;0.20;;;;;;;;;;5050527;28;20396;-63
2021/07/27 12:57:37;;;;;;;0.20;0.20;;;;;;;;;;5050544;28;20439;-64
2021/07/27 13:00:07;;;;;;;0.20;0.20;;;;;;;;;;5049581;28;20418;-63
2021/07/27 13:02:33;;;;;;;0.20;0.20;;;;;;;;;;5050499;28;20489;-63
2021/07/27 13:04:59;;;;;;;0.20;0.20;;;;;;;;;;5051784;28;20377;-64
2021/07/27 13:07:25;;;;;;;0.20;0.20;;;;;;;;;;5053847;28;20422;-63
2021/07/27 13:09:51;;;;;;;0.20;0.20;;;;;;;;;;5053876;28;20406;-63
2021/07/27 13:12:17;;;;;;;0.20;0.20;;;;;;;;;;5053292;28;20390;-63
2021/07/27 13:14:43;;;;;;;0.20;0.20;;;;;;;;;;5053886;28;20403;-63
2021/07/27 13:17:10;;;;;;;0.20;0.20;;;;;;;;;;5053956;28;20426;-63
2021/07/27 13:19:36;;;;;;;0.20;0.20;;;;;;;;;;5053604;28;20825;-63
2021/07/27 13:22:05;;;;;;;0.20;0.20;;;;;;;;;;5053422;28;20458;-64
2021/07/27 13:24:32;;;;;;;0.20;0.20;;;;;;;;;;5053392;28;20406;-63
2021/07/27 13:26:58;;;;;;;0.20;0.20;;;;;;;;;;5053813;28;20496;-63
2021/07/27 13:29:24;;;;;;;0.20;0.20;;;;;;;;;;5053448;28;20820;-64
2021/07/27 13:31:50;;;;;;;0.20;0.20;;;;;;;;;;5052770;28;20456;-64
2021/07/27 13:34:19;;;;;;;0.20;0.20;;;;;;;;;;5053175;28;20417;-63
2021/07/27 13:36:46;;;;;;;0.20;0.20;;;;;;;;;;5053390;28;20489;-64
2021/07/27 13:39:12;;;;;;;0.20;0.20;;;;;;;;;;5053621;28;20418;-64
2021/07/27 13:41:38;;;;;;;0.20;0.20;;;;;;;;;;5053392;28;20987;-64
2021/07/27 13:44:04;;;;;;;0.20;0.20;;;;;;;;;;5053214;28;20407;-63
2021/07/27 13:46:30;;;;;;;0.20;0.20;;;;;;;;;;5053139;28;20395;-63
2021/07/27 13:48:56;;;;;;;0.20;0.20;;;;;;;;;;5052730;28;20425;-64
2021/07/27 13:51:22;;;;;;;0.20;0.20;;;;;;;;;;5053269;28;20412;-63
2021/07/27 13:53:48;;;;;;;0.20;0.20;;;;;;;;;;5053290;28;20863;-63
2021/07/27 13:56:15;;;;;;;0.20;0.20;;;;;;;;;;5052621;28;20406;-65
2021/07/27 13:58:41;;;;;;;0.20;0.20;;;;;;;;;;5033642;28;20427;-63
2021/07/27 14:01:07;;;;;;;0.20;0.20;;;;;;;;;;5032861;28;20433;-63
2021/07/27 14:03:33;;;;;;;0.20;0.20;;;;;;;;;;5033039;28;20466;-64
2021/07/27 14:05:59;;;;;;;0.20;0.20;;;;;;;;;;5032995;28;20407;-64
2021/07/27 14:08:25;;;;;;;0.20;0.20;;;;;;;;;;5032201;28;20427;-63
2021/07/27 14:10:51;;;;;;;0.20;0.20;;;;;;;;;;5033064;28;20410;-63
2021/07/27 14:13:17;;;;;;;0.20;0.20;;;;;;;;;;5040135;28;20753;-63
2021/07/27 14:15:43;;;;;;;0.20;0.20;;;;;;;;;;5052205;28;20411;-63
2021/07/27 14:18:10;;;;;;;0.20;0.20;;;;;;;;;;5051669;28;20995;-63
2021/07/27 14:20:36;;;;;;;0.20;0.20;;;;;;;;;;5052728;28;20417;-63
2021/07/27 14:23:02;;;;;;;0.20;0.20;;;;;;;;;;5052608;28;20458;-63
2021/07/27 14:25:28;;;;;;;0.20;0.20;;;;;;;;;;5052477;28;20408;-63
2021/07/27 14:27:56;;;;;;;0.20;0.20;;;;;;;;;;5052675;28;20644;-63
2021/07/27 14:30:22;;;;;;;0.20;0.20;;;;;;;;;;5052020;28;20598;-63
2021/07/27 14:32:48;;;;;;;0.20;0.20;;;;;;;;;;5052431;28;20493;-63
2021/07/27 14:35:14;;;;;;;0.20;0.20;;;;;;;;;;5052514;28;20444;-63
2021/07/27 14:37:40;;;;;;;0.20;0.20;;;;;;;;;;5052039;28;20450;-63
2021/07/27 14:40:06;;;;;;;0.20;0.20;;;;;;;;;;5051846;28;20421;-63
2021/07/27 14:42:32;;;;;;;0.20;0.20;;;;;;;;;;5052064;28;20460;-63
2021/07/27 14:44:58;;;;;;;0.20;0.20;;;;;;;;;;5052506;28;20402;-64
2021/07/27 14:47:24;;;;;;;0.20;0.20;;;;;;;;;;5052100;28;20764;-63
2021/07/27 14:49:50;;;;;;;0.20;0.20;;;;;;;;;;5051646;28;20384;-63
2021/07/27 14:52:16;;;;;;;0.30;0.30;;;;;;;;;;5051680;28;20413;-64
2021/07/27 14:54:42;;;;;;;0.20;0.20;;;;;;;;;;5052179;28;20433;-63
2021/07/27 14:57:08;;;;;;;0.20;0.20;;;;;;;;;;5051847;28;20429;-64
2021/07/27 14:59:34;;;;;;;0.20;0.20;;;;;;;;;;5051785;28;20420;-63
2021/07/27 15:02:00;;;;;;;0.20;0.20;;;;;;;;;;5051426;28;20460;-64
2021/07/27 15:04:26;;;;;;;0.20;0.20;;;;;;;;;;5051529;28;20489;-63